Time;durP1;ratioP1;P1;durP2;ratioP2;P2;SDS_P1;SDS_P2;PMS_P1;PMS_P2;Temp;Humidity;BMP_temperature;BMP_pressure;BME280_temperature;BME280_humidity;BME280_pressure;Samples;Min_cycle;Max_cycle;Signal;HPM_P1;HPM_P2
2022/07/10 00:01:25;;;;;;;2.63;0.77;;;17.20;92.40;;;17.44;66.44;101991.53;5186880;28;20034;-75
2022/07/10 00:03:58;;;;;;;3.30;1.08;;;17.20;92.50;;;17.37;66.30;102001.03;5186771;28;20046;-76
2022/07/10 00:06:31;;;;;;;2.42;1.00;;;17.20;92.40;;;17.34;66.90;102000.94;5185284;28;20049;-76
2022/07/10 00:09:03;;;;;;;3.13;1.10;;;17.20;92.70;;;17.31;66.82;101995.59;5185569;28;20096;-75
2022/07/10 00:11:35;;;;;;;2.97;1.00;;;17.10;92.70;;;17.29;66.73;101995.56;5186747;28;20058;-76
2022/07/10 00:14:07;;;;;;;2.47;0.80;;;17.10;92.70;;;17.28;66.76;101998.16;5186697;28;20072;-75
2022/07/10 00:16:39;;;;;;;1.27;0.75;;;17.00;92.80;;;17.27;66.78;101993.72;5186214;28;20099;-76
2022/07/10 00:19:13;;;;;;;2.05;0.98;;;17.00;92.90;;;17.25;67.04;101990.16;5186220;28;20065;-74
2022/07/10 00:21:45;;;;;;;9.13;1.98;;;17.00;93.00;;;17.22;67.21;101995.38;5186372;28;20056;-75
2022/07/10 00:24:17;;;;;;;1.33;0.90;;;16.90;93.10;;;17.19;67.26;101990.00;5186503;28;20100;-74
2022/07/10 00:26:50;;;;;;;1.00;0.70;;;16.90;93.20;;;17.16;67.58;101987.31;5184901;28;20050;-75
2022/07/10 00:29:22;;;;;;;3.50;1.00;;;16.90;93.30;;;17.12;67.77;101988.06;5185070;28;20131;-76
2022/07/10 00:31:54;;;;;;;2.22;0.82;;;16.90;93.50;;;17.07;67.77;101991.44;5184951;28;20485;-74
2022/07/10 00:34:28;;;;;;;1.25;0.90;;;16.80;93.50;;;17.03;68.15;101994.88;5185024;28;20461;-76
2022/07/10 00:37:00;;;;;;;1.65;0.63;;;16.80;93.70;;;17.02;68.43;101994.84;5184790;28;20590;-74
2022/07/10 00:39:32;;;;;;;1.33;0.73;;;16.80;93.80;;;17.00;68.23;101988.59;5186089;28;20042;-75
2022/07/10 00:42:09;;;;;;;2.03;0.70;;;16.70;93.70;;;16.97;68.06;101992.06;5186014;28;20133;-75
2022/07/10 00:44:41;;;;;;;2.35;0.90;;;16.70;93.70;;;16.96;68.09;101990.28;5184773;28;20042;-76
2022/07/10 00:47:17;;;;;;;1.55;0.77;;;16.70;93.80;;;16.93;68.04;101987.53;5186036;28;20406;-75
2022/07/10 00:49:50;;;;;;;2.58;0.65;;;16.70;94.10;;;16.93;68.09;101992.81;5215160;22;20056;-84
2022/07/10 00:52:23;;;;;;;1.00;0.60;;;16.70;93.80;;;16.88;68.10;101988.25;5207746;28;20048;-85
2022/07/10 00:54:55;;;;;;;1.15;0.70;;;16.60;93.90;;;16.86;68.21;101989.97;5224387;28;20053;-84
2022/07/10 00:57:28;;;;;;;1.80;0.90;;;16.60;93.90;;;16.85;68.31;101989.09;5209128;28;20045;-87
2022/07/10 01:00:00;;;;;;;1.25;0.63;;;16.60;94.00;;;16.84;68.31;101987.31;5219027;28;20080;-84
2022/07/10 01:02:32;;;;;;;1.08;0.80;;;16.60;94.10;;;16.84;68.33;101987.31;5228215;28;20502;-85
2022/07/10 01:05:06;;;;;;;3.28;0.70;;;16.60;94.10;;;16.80;68.32;101985.41;5228146;28;20071;-85
2022/07/10 01:07:38;;;;;;;1.65;0.73;;;16.50;94.10;;;16.76;68.35;101988.84;5244420;28;20052;-84
2022/07/10 01:10:11;;;;;;;0.90;0.68;;;16.50;94.10;;;16.70;68.44;101976.38;5228442;28;20049;-86
2022/07/10 01:12:43;;;;;;;2.58;0.88;;;16.50;94.20;;;16.69;68.54;101978.91;5246906;28;20045;-85
2022/07/10 01:15:16;;;;;;;2.58;0.80;;;16.40;94.30;;;16.67;68.60;101984.16;5229503;28;20061;-84
2022/07/10 01:17:49;;;;;;;3.00;1.10;;;16.40;94.60;;;16.60;68.46;101981.28;5246384;28;20055;-85
2022/07/10 01:20:32;;;;;;;1.92;0.90;;;16.40;94.20;;;16.58;68.50;101983.00;5229320;28;20040;-84
2022/07/10 01:23:05;;;;;;;2.10;0.90;;;16.30;94.30;;;16.58;68.74;101977.75;5245898;28;20049;-84
2022/07/10 01:25:37;;;;;;;3.80;1.02;;;16.30;94.40;;;16.49;68.95;101973.06;5228814;28;20123;-85
2022/07/10 01:28:09;;;;;;;2.92;0.98;;;16.30;94.40;;;16.44;69.41;101970.34;5228800;28;20045;-85
2022/07/10 01:30:42;;;;;;;2.55;0.85;;;16.20;94.70;;;16.44;69.39;101970.34;5230806;28;20045;-86
2022/07/10 01:33:14;;;;;;;3.10;0.90;;;16.20;94.70;;;16.43;69.43;101968.56;5228893;28;20041;-85
2022/07/10 01:35:46;;;;;;;2.17;0.85;;;16.20;94.80;;;16.42;69.65;101966.75;5228644;28;20055;-84
2022/07/10 01:38:19;;;;;;;2.30;1.02;;;16.20;94.90;;;16.40;69.93;101964.94;5230202;28;20068;-84
2022/07/10 01:40:52;;;;;;;2.45;0.85;;;16.20;95.00;;;16.37;70.27;101960.47;5229099;28;20530;-85
2022/07/10 01:43:24;;;;;;;2.13;0.77;;;16.20;95.20;;;16.33;70.38;101961.22;5241893;28;20065;-86
2022/07/10 01:45:56;;;;;;;1.52;0.98;;;16.10;95.20;;;16.34;70.46;101957.75;5208924;28;20042;-86
2022/07/10 01:48:28;;;;;;;3.83;0.80;;;16.10;95.30;;;16.33;70.77;101949.81;5208063;28;20140;-86
2022/07/10 01:51:00;;;;;;;2.95;0.75;;;16.10;95.50;;;16.34;70.80;101952.47;5209144;28;20040;-86
2022/07/10 01:53:34;;;;;;;3.60;0.95;;;16.10;95.60;;;16.34;70.89;101956.84;5208225;28;20052;-85
2022/07/10 01:56:08;;;;;;;1.33;0.60;;;16.10;95.70;;;16.34;71.06;101952.47;5208694;28;20125;-85
2022/07/10 01:58:41;;;;;;;2.17;0.77;;;16.10;95.80;;;16.34;71.10;101963.00;5208064;28;20054;-86
2022/07/10 02:01:13;;;;;;;2.00;0.75;;;16.10;95.90;;;16.32;71.15;101950.66;5207537;28;20131;-85
2022/07/10 02:06:35;;;;;;;1.75;0.60;;;16.00;96.10;;;16.27;71.62;101966.28;5207551;28;20092;-86
2022/07/10 02:09:09;;;;;;;2.00;0.52;;;16.00;96.20;;;16.24;71.70;101956.59;5209100;28;20049;-86
2022/07/10 02:11:41;;;;;;;1.70;0.65;;;16.00;96.30;;;16.23;71.88;101960.03;5209432;28;20052;-84
2022/07/10 02:14:13;;;;;;;1.65;0.63;;;15.90;96.40;;;16.22;72.00;101955.63;5208212;28;20049;-87
2022/07/10 02:16:45;;;;;;;1.85;0.60;;;15.90;96.60;;;16.18;72.32;101961.66;5208885;28;20513;-85
2022/07/10 02:19:18;;;;;;;2.05;0.80;;;15.90;96.70;;;16.16;72.61;101951.91;5210956;28;20400;-85
2022/07/10 02:21:50;;;;;;;2.47;0.65;;;15.90;96.90;;;16.13;73.12;101946.56;5229329;28;20084;-85
2022/07/10 02:24:24;;;;;;;0.88;0.60;;;15.90;97.20;;;16.10;73.92;101947.34;5228990;28;20049;-85
2022/07/10 02:26:56;;;;;;;2.25;0.75;;;15.80;97.50;;;16.10;74.42;101957.00;5213298;28;20046;-85
2022/07/10 02:29:28;;;;;;;1.25;0.77;;;15.80;97.90;;;16.10;74.67;101949.09;5213944;28;20053;-85
2022/07/10 02:32:01;;;;;;;2.53;0.90;;;15.80;98.00;;;16.08;74.79;101943.81;5212934;28;20046;-85
2022/07/10 02:34:33;;;;;;;3.35;0.80;;;15.80;98.20;;;16.08;75.22;101953.44;5212289;28;20056;-86
2022/07/10 02:37:05;;;;;;;2.58;0.82;;;15.80;98.40;;;16.06;75.63;101944.63;5212487;28;20073;-85
2022/07/10 02:39:39;;;;;;;1.27;0.80;;;15.80;98.70;;;16.08;76.04;101937.66;5212534;28;20050;-85
2022/07/10 02:42:12;;;;;;;2.47;1.00;;;15.80;99.00;;;16.11;76.40;101943.03;5228522;28;20061;-85
2022/07/10 02:44:44;;;;;;;2.40;0.73;;;15.80;99.20;;;16.12;76.80;101947.44;5227965;28;20049;-85
2022/07/10 02:47:16;;;;;;;2.50;0.80;;;15.80;99.40;;;16.15;77.09;101944.88;5213555;28;20541;-86
2022/07/10 02:49:48;;;;;;;3.72;1.20;;;15.90;99.90;;;16.16;77.17;101942.28;5213337;28;20049;-83
2022/07/10 02:52:20;;;;;;;1.85;1.02;;;15.90;99.90;;;16.19;77.85;101936.25;5213238;28;20064;-85
2022/07/10 02:54:54;;;;;;;1.27;0.85;;;15.90;99.90;;;16.22;77.89;101936.31;5228319;28;20056;-86
2022/07/10 02:57:27;;;;;;;2.13;0.93;;;15.90;99.90;;;16.20;78.09;101933.66;5211807;28;20049;-86
2022/07/10 02:59:59;;;;;;;1.77;1.02;;;16.00;99.90;;;16.22;78.16;101931.06;5212223;28;20053;-85
2022/07/10 03:02:32;;;;;;;1.48;0.88;;;15.90;99.90;;;16.21;78.16;101943.31;5212024;28;20045;-85
2022/07/10 03:05:05;;;;;;;1.95;1.17;;;15.90;99.90;;;16.16;78.17;101942.28;5211584;28;20519;-84
2022/07/10 03:07:37;;;;;;;1.45;0.98;;;15.90;99.90;;;16.13;78.40;101949.22;5213695;28;20053;-85
2022/07/10 03:10:11;;;;;;;3.80;1.63;;;15.90;99.90;;;16.08;78.91;101937.66;5228938;28;20053;-85
2022/07/10 03:12:43;;;;;;;1.50;1.00;;;15.80;99.90;;;16.02;79.21;101941.88;5212464;28;20063;-85
2022/07/10 03:15:15;;;;;;;1.77;1.00;;;15.80;99.90;;;15.99;79.81;101943.53;5212383;28;20068;-85
2022/07/10 03:17:47;;;;;;;1.42;1.17;;;15.70;99.90;;;15.98;80.27;101949.66;5213217;28;20530;-84
2022/07/10 03:20:20;;;;;;;2.25;0.90;;;15.70;99.90;;;15.94;80.39;101948.63;5229553;28;20411;-85
2022/07/10 03:22:52;;;;;;;2.15;0.80;;;15.70;99.90;;;15.92;80.36;101955.59;5213641;28;20128;-85
2022/07/10 03:25:26;;;;;;;2.03;0.90;;;15.70;99.90;;;15.90;80.46;101959.00;5212469;28;20072;-84
2022/07/10 03:27:58;;;;;;;1.52;0.90;;;15.60;99.90;;;15.90;80.50;101954.63;5228798;28;20057;-85
2022/07/10 03:30:30;;;;;;;2.53;1.30;;;15.60;99.90;;;15.92;80.63;101952.06;5211568;28;20037;-86
2022/07/10 03:33:03;;;;;;;3.70;1.00;;;15.60;99.90;;;15.91;80.38;101953.81;5213111;28;20056;-87
2022/07/10 03:35:35;;;;;;;1.60;0.90;;;15.60;99.90;;;15.92;80.17;101954.72;5212777;28;20049;-84
2022/07/10 03:38:07;;;;;;;3.08;0.90;;;15.70;99.90;;;15.93;80.48;101953.84;5212716;28;20045;-86
2022/07/10 03:40:41;;;;;;;1.52;0.90;;;15.60;99.90;;;15.92;80.41;101958.22;5228880;28;20427;-86
2022/07/10 03:43:13;;;;;;;2.63;1.02;;;15.60;99.90;;;15.92;80.47;101952.97;5229225;28;20042;-84
2022/07/10 03:45:45;;;;;;;3.03;1.10;;;15.60;99.90;;;15.92;80.33;101950.34;5212166;28;20538;-86
2022/07/10 03:48:17;;;;;;;1.75;0.75;;;15.70;99.90;;;15.93;80.44;101954.75;5213084;28;20157;-85
2022/07/10 03:50:51;;;;;;;1.00;0.80;;;15.70;99.90;;;15.96;80.44;101953.94;5214276;28;20453;-86
2022/07/10 03:53:23;;;;;;;1.33;0.80;;;15.70;99.90;;;15.98;80.37;101950.53;5214710;28;20124;-86
2022/07/10 03:55:56;;;;;;;1.95;0.80;;;15.70;99.90;;;16.01;80.40;101953.25;5242524;28;20049;-85
2022/07/10 03:58:27;;;;;;;2.47;0.93;;;15.70;99.90;;;16.02;80.24;101955.03;5233902;28;20068;-84
2022/07/10 04:00:59;;;;;;;1.08;0.70;;;15.80;99.90;;;16.04;80.22;101949.84;5250689;28;20111;-84
2022/07/10 04:03:31;;;;;;;0.60;0.60;;;15.80;99.90;;;16.06;80.37;101944.63;5234524;28;20056;-85
2022/07/10 04:06:04;;;;;;;1.20;0.80;;;15.80;99.90;;;16.07;80.35;101946.38;5234394;28;20045;-86
2022/07/10 04:08:36;;;;;;;1.75;0.65;;;15.80;99.90;;;16.08;80.39;101940.28;5251097;28;20049;-86
2022/07/10 04:11:09;;;;;;;1.13;0.63;;;15.80;99.90;;;16.08;80.31;101945.53;5243529;28;20037;-86
2022/07/10 04:13:42;;;;;;;2.35;0.90;;;15.80;99.90;;;16.07;80.45;101941.13;5241327;28;20052;-84
2022/07/10 04:16:14;;;;;;;3.22;1.33;;;15.80;99.90;;;16.07;80.48;101944.66;5248698;28;20051;-85
2022/07/10 04:18:46;;;;;;;1.55;0.82;;;15.80;99.90;;;16.08;80.49;101948.16;5232136;28;20087;-84
2022/07/10 04:21:18;;;;;;;3.13;0.82;;;15.80;99.90;;;16.11;80.72;101953.53;5232201;28;20049;-85
2022/07/10 04:23:50;;;;;;;2.35;0.80;;;15.80;99.90;;;16.12;80.71;101950.94;5248719;28;20132;-84
2022/07/10 04:26:24;;;;;;;2.85;0.90;;;15.80;99.90;;;16.13;80.98;101947.47;5232224;28;20135;-86
2022/07/10 04:28:56;;;;;;;1.42;0.80;;;15.80;99.90;;;16.15;80.72;101948.41;5231961;28;20049;-86
2022/07/10 04:31:28;;;;;;;2.03;0.77;;;15.90;99.90;;;16.15;81.02;101944.88;5233267;28;20055;-85
2022/07/10 04:34:00;;;;;;;2.15;1.05;;;15.90;99.90;;;16.15;81.27;101950.13;5231755;28;20057;-85
2022/07/10 04:36:32;;;;;;;2.88;0.70;;;15.90;99.90;;;16.17;81.16;101945.81;5231712;28;20041;-85
2022/07/10 04:39:04;;;;;;;1.65;0.85;;;15.90;99.90;;;16.20;81.22;101946.81;5233173;28;20128;-85
2022/07/10 04:41:38;;;;;;;1.10;0.70;;;15.90;99.90;;;16.24;80.95;101950.44;5232494;28;20048;-85
2022/07/10 04:44:10;;;;;;;1.02;0.80;;;16.00;99.90;;;16.24;80.99;101947.81;5232888;28;20051;-86
2022/07/10 04:46:42;;;;;;;3.08;1.00;;;16.00;99.90;;;16.28;80.81;101953.19;5248605;28;20052;-86
2022/07/10 04:49:14;;;;;;;2.90;1.00;;;16.00;99.90;;;16.29;80.32;101954.06;5248398;28;20103;-85
2022/07/10 04:51:46;;;;;;;2.28;0.90;;;16.00;99.90;;;16.29;80.63;101954.06;5232212;28;20047;-86
2022/07/10 04:54:18;;;;;;;3.05;1.10;;;16.00;99.90;;;16.39;80.51;101950.88;5232323;28;20053;-86
2022/07/10 04:56:53;;;;;;;1.50;0.93;;;16.10;99.90;;;16.56;80.29;101953.97;5231828;28;20506;-85
2022/07/10 04:59:25;;;;;;;4.13;1.13;;;16.30;99.90;;;16.77;79.28;101937.97;5231537;28;20048;-86
2022/07/10 05:01:57;;;;;;;3.75;1.10;;;16.40;99.90;;;16.96;78.33;101948.13;5232335;28;20045;-86
2022/07/10 05:04:30;;;;;;;4.07;1.30;;;16.60;99.90;;;17.14;76.71;101950.34;5232446;28;20048;-84
2022/07/10 05:07:02;;;;;;;2.78;0.90;;;16.80;99.90;;;17.28;75.65;101953.38;5232134;28;20041;-86
2022/07/10 05:09:34;;;;;;;1.90;1.00;;;17.00;99.90;;;17.39;74.73;101956.25;5232116;28;20051;-85
2022/07/10 05:12:08;;;;;;;1.95;1.10;;;17.10;99.90;;;17.45;73.75;101962.56;5249916;28;20045;-85
2022/07/10 05:14:40;;;;;;;5.63;1.02;;;17.20;99.90;;;17.43;73.00;101964.28;5245930;28;20048;-89
2022/07/10 05:17:12;;;;;;;2.58;1.20;;;17.20;99.30;;;17.40;72.80;101958.91;5251065;28;20041;-87
2022/07/10 05:19:45;;;;;;;3.80;1.20;;;17.20;99.20;;;17.38;73.19;101965.91;5248565;28;20052;-84
2022/07/10 05:22:17;;;;;;;3.35;1.25;;;17.20;99.20;;;17.46;73.04;101961.72;5231882;28;20041;-85
2022/07/10 05:24:49;;;;;;;3.72;1.30;;;17.20;99.20;;;17.51;72.79;101965.38;5230069;28;20047;-84
2022/07/10 05:27:22;;;;;;;2.78;0.70;;;17.30;99.10;;;17.54;72.68;101973.38;5228963;28;20057;-85
2022/07/10 05:29:54;;;;;;;4.47;1.25;;;17.30;99.00;;;17.52;72.37;101969.78;5227831;28;20419;-84
2022/07/10 05:32:26;;;;;;;5.40;1.10;;;17.30;98.80;;;17.51;72.17;101975.91;5227843;28;20045;-85
2022/07/10 05:34:59;;;;;;;3.25;1.02;;;17.30;98.70;;;17.49;72.14;101976.75;5244737;28;20077;-85
2022/07/10 05:37:31;;;;;;;2.95;1.20;;;17.30;98.60;;;17.49;72.03;101984.66;5230221;28;20049;-84
2022/07/10 05:40:05;;;;;;;1.48;0.70;;;17.30;98.60;;;17.47;72.10;101987.22;5228807;28;20040;-84
2022/07/10 05:42:38;;;;;;;1.95;0.77;;;17.20;98.60;;;17.44;72.16;101981.88;5245526;28;20048;-85
2022/07/10 05:45:11;;;;;;;4.05;1.05;;;17.20;98.60;;;17.49;72.38;101982.00;5228020;28;20059;-86
2022/07/10 05:47:44;;;;;;;2.47;1.00;;;17.30;98.70;;;17.76;72.74;101984.47;5228736;28;20049;-85
2022/07/10 05:50:16;;;;;;;5.00;1.10;;;17.40;99.00;;;18.15;71.95;101982.75;5229115;28;20040;-85
2022/07/10 05:52:48;;;;;;;5.78;1.70;;;17.70;98.90;;;18.51;69.96;101984.41;5230589;28;20075;-84
2022/07/10 05:55:20;;;;;;;3.55;1.33;;;18.00;98.30;;;18.79;68.99;101979.75;5233140;28;20049;-85
2022/07/10 05:57:54;;;;;;;3.83;1.35;;;18.30;97.70;;;19.01;67.82;101974.00;5233038;28;20060;-84
2022/07/10 06:00:26;;;;;;;4.30;1.15;;;18.50;97.10;;;19.22;66.44;101979.66;5231304;28;20139;-86
2022/07/10 06:02:58;;;;;;;5.28;1.30;;;18.70;96.60;;;19.47;65.68;101981.00;5233484;28;20041;-86
2022/07/10 06:05:30;;;;;;;2.95;1.10;;;18.90;96.10;;;19.43;63.98;101980.91;5248176;28;20422;-86
2022/07/10 06:08:03;;;;;;;2.90;0.93;;;19.00;95.10;;;19.19;63.51;101971.69;5231306;28;20045;-86
2022/07/10 06:10:35;;;;;;;5.15;1.27;;;18.90;94.50;;;19.17;63.82;101976.06;5231309;28;20048;-87
2022/07/10 06:13:09;;;;;;;3.38;1.13;;;18.80;94.60;;;19.16;63.93;101976.03;5231765;28;20045;-85
2022/07/10 06:15:41;;;;;;;2.67;1.02;;;18.80;94.50;;;19.00;63.95;101974.88;5230765;28;20439;-87
2022/07/10 06:18:13;;;;;;;3.35;1.20;;;18.70;94.30;;;19.03;64.88;101969.63;5231073;28;20058;-86
2022/07/10 06:20:45;;;;;;;3.65;1.05;;;18.70;94.80;;;19.22;64.90;101966.44;5249064;28;20049;-87
2022/07/10 06:23:17;;;;;;;2.72;1.00;;;18.80;95.00;;;19.20;63.65;101973.47;5233120;28;20037;-86
2022/07/10 06:25:49;;;;;;;4.13;1.15;;;18.80;94.30;;;19.04;63.55;101978.44;5232435;28;20055;-86
2022/07/10 06:28:23;;;;;;;3.45;1.10;;;18.70;93.90;;;18.78;63.69;101983.22;5232463;28;20041;-86
2022/07/10 06:30:55;;;;;;;2.92;1.00;;;18.60;93.80;;;18.60;64.12;101978.44;5233301;28;20064;-87
2022/07/10 06:33:28;;;;;;;4.18;1.20;;;18.40;94.00;;;18.52;64.17;101978.28;5232317;28;20049;-87
2022/07/10 06:36:00;;;;;;;2.10;0.98;;;18.30;93.90;;;18.47;64.39;101976.41;5234024;28;20040;-86
2022/07/10 06:38:32;;;;;;;3.65;1.17;;;18.20;94.10;;;18.48;64.67;101984.34;5233122;28;20147;-86
2022/07/10 06:41:04;;;;;;;2.70;1.05;;;18.20;94.30;;;18.50;64.82;101976.44;5233374;28;20059;-86
2022/07/10 06:43:38;;;;;;;3.63;1.25;;;18.20;94.30;;;18.40;64.84;101981.56;5231421;28;20116;-83
2022/07/10 06:46:10;;;;;;;2.03;1.30;;;18.10;94.30;;;18.29;65.02;101983.06;5232022;28;20044;-84
2022/07/10 06:48:41;;;;;;;3.25;1.25;;;18.00;94.40;;;18.23;65.72;101984.66;5131419;28;20145;-82
2022/07/10 06:51:13;;;;;;;2.00;1.20;;;18.00;94.60;;;18.19;65.87;101986.34;5229760;28;20049;-82
2022/07/10 06:53:46;;;;;;;3.20;1.30;;;17.90;94.70;;;18.21;66.52;101982.00;5239946;22;20041;-88
2022/07/10 06:56:19;;;;;;;4.32;1.77;;;18.00;94.80;;;18.26;66.08;101977.72;5192800;28;20056;-89
2022/07/10 06:58:52;;;;;;;7.18;1.70;;;18.00;94.90;;;18.38;67.34;101972.69;5204309;28;20045;-90
2022/07/10 07:01:24;;;;;;;2.42;1.40;;;18.10;95.50;;;18.52;67.03;101980.94;5212801;28;20064;-89
2022/07/10 07:03:56;;;;;;;3.30;1.60;;;18.20;95.50;;;18.72;66.33;101977.84;5211998;28;20056;-85
2022/07/10 07:06:28;;;;;;;3.40;1.77;;;18.40;95.20;;;19.00;65.96;101974.88;5203956;28;20052;-87
2022/07/10 07:09:00;;;;;;;2.45;1.50;;;18.60;95.10;;;19.33;64.71;101968.41;5212331;28;20050;-86
2022/07/10 07:11:32;;;;;;;4.68;1.60;;;18.80;94.70;;;19.53;63.29;101970.53;5227923;28;20048;-85
2022/07/10 07:14:06;;;;;;;2.65;1.42;;;19.10;94.00;;;19.49;62.47;101970.44;5211075;28;20060;-84
2022/07/10 07:16:42;;;;;;;3.45;1.50;;;19.10;93.20;;;19.45;62.19;101966.88;5195482;28;20046;-83
2022/07/10 07:19:17;;;;;;;2.80;1.33;;;19.10;92.90;;;19.43;62.46;101972.97;5195137;28;20050;-82
2022/07/10 07:24:39;;;;;;;4.13;1.50;;;19.20;93.10;;;19.89;62.08;101981.72;5189024;28;20058;-83
2022/07/10 07:27:12;;;;;;;2.88;1.15;;;19.40;92.90;;;20.02;61.58;101978.38;5187736;28;20046;-86
2022/07/10 07:29:45;;;;;;;4.57;1.50;;;19.50;92.70;;;20.20;60.83;101983.91;5185077;28;20061;-86
2022/07/10 07:32:17;;;;;;;4.07;1.65;;;19.70;92.30;;;20.41;60.00;101977.13;5208526;28;20084;-82
2022/07/10 07:34:49;;;;;;;2.72;1.33;;;19.90;91.90;;;20.78;59.30;101974.09;5187141;28;20042;-84
2022/07/10 07:37:21;;;;;;;6.40;1.45;;;20.10;91.60;;;20.97;58.05;101969.00;5190968;28;20052;-84
2022/07/10 07:39:53;;;;;;;4.32;1.30;;;20.30;90.90;;;20.94;56.30;101976.94;5195959;28;20053;-86
2022/07/10 07:42:25;;;;;;;3.58;1.17;;;20.40;89.50;;;20.68;55.93;101981.94;5219224;28;20052;-85
2022/07/10 07:44:59;;;;;;;3.72;1.10;;;20.30;87.80;;;20.41;56.07;101979.78;5211461;28;20056;-84
2022/07/10 07:47:32;;;;;;;2.50;1.17;;;20.10;87.40;;;20.27;56.42;101979.59;5213488;28;20584;-86
2022/07/10 07:50:05;;;;;;;3.80;1.60;;;19.90;87.30;;;20.19;57.01;101991.84;5202371;28;20128;-83
2022/07/10 07:52:37;;;;;;;1.73;1.10;;;19.80;87.90;;;20.03;56.79;101985.47;5196713;28;20045;-85
2022/07/10 07:55:10;;;;;;;3.45;1.20;;;19.70;87.20;;;19.92;56.99;101987.03;5208524;28;20045;-84
2022/07/10 07:57:43;;;;;;;2.03;1.05;;;19.60;87.50;;;19.91;57.14;101980.88;5219032;28;20107;-85
2022/07/10 08:00:18;;;;;;;3.50;1.08;;;19.60;87.90;;;19.83;57.46;101982.50;5193708;28;20064;-84
2022/07/10 08:02:50;;;;;;;;;;;19.50;88.00;;;19.73;57.96;101986.75;5215586;28;20045;-86
2022/07/10 08:05:24;;;;;;;1.95;1.17;;;19.40;88.30;;;19.70;58.09;101992.00;5220276;28;19921;-84
2022/07/10 08:07:58;;;;;;;2.33;1.02;;;19.40;88.60;;;19.75;58.63;101984.13;5209774;28;20044;-84
2022/07/10 08:10:31;;;;;;;3.95;0.90;;;19.40;89.10;;;19.76;58.15;101976.22;5216894;28;20088;-84
2022/07/10 08:13:04;;;;;;;4.72;1.25;;;19.40;88.70;;;19.84;58.16;101973.69;5223397;28;20049;-82
2022/07/10 08:15:37;;;;;;;4.88;1.27;;;19.50;88.80;;;19.94;58.15;101977.34;5190197;28;20045;-84
2022/07/10 08:18:09;;;;;;;1.98;1.05;;;19.50;88.80;;;20.03;58.32;101969.56;5208822;28;20491;-84
2022/07/10 08:20:42;;;;;;;3.38;1.05;;;19.60;88.90;;;20.06;58.15;101967.84;5189000;28;20055;-85
2022/07/10 08:23:14;;;;;;;2.53;0.90;;;19.70;88.70;;;20.05;58.13;101962.53;5222536;28;20410;-85
2022/07/10 08:25:46;;;;;;;3.33;1.10;;;19.70;88.40;;;20.05;58.19;101967.81;5204003;28;20049;-85
2022/07/10 08:28:18;;;;;;;2.20;0.98;;;19.70;88.40;;;20.05;58.32;101973.13;5230150;28;20064;-85
2022/07/10 08:30:51;;;;;;;3.53;1.20;;;19.70;88.60;;;20.02;58.76;101978.38;5216821;28;20051;-85
2022/07/10 08:33:24;;;;;;;4.50;1.30;;;19.70;89.10;;;19.96;59.26;101979.19;5231221;28;20515;-84
2022/07/10 08:35:59;;;;;;;2.75;1.13;;;19.60;89.40;;;19.90;59.38;101988.78;5198648;28;20085;-85
2022/07/10 08:38:32;;;;;;;4.70;1.73;;;19.60;89.50;;;19.84;59.51;101983.41;5191831;28;20069;-86
2022/07/10 08:41:07;;;;;;;2.60;1.15;;;19.50;89.70;;;19.79;59.80;101978.91;5209611;28;20049;-87
2022/07/10 08:43:39;;;;;;;2.20;1.23;;;19.50;90.00;;;19.78;60.41;101985.06;5198488;28;20073;-85
2022/07/10 08:46:13;;;;;;;3.78;1.20;;;19.50;90.20;;;19.75;60.50;101979.72;5210218;28;20046;-84
2022/07/10 08:48:49;;;;;;;1.80;1.00;;;19.40;90.30;;;19.79;60.72;101981.56;5210022;28;20044;-86
2022/07/10 08:51:35;;;;;;;2.70;1.20;;;19.50;90.50;;;19.99;60.91;101988.91;5215616;28;20062;-85
2022/07/10 08:54:09;;;;;;;3.45;1.40;;;19.60;90.70;;;20.14;60.40;101985.59;5214273;28;20143;-85
2022/07/10 08:56:42;;;;;;;1.67;1.30;;;19.70;90.50;;;20.14;60.27;101983.81;5202997;28;20041;-85
2022/07/10 08:59:15;;;;;;;1.35;1.10;;;19.80;90.30;;;20.04;59.69;101976.63;5208672;28;20106;-85
2022/07/10 09:01:50;;;;;;;3.55;1.50;;;19.70;90.00;;;19.95;60.23;101976.50;5230890;28;20041;-86
2022/07/10 09:04:25;;;;;;;4.53;1.88;;;19.60;90.20;;;19.98;60.48;101977.44;5213918;28;20048;-86
2022/07/10 09:06:57;;;;;;;4.57;1.40;;;19.60;90.30;;;20.01;60.41;101977.47;5231060;28;20459;-86
2022/07/10 09:09:29;;;;;;;5.57;1.80;;;19.70;90.30;;;20.02;60.73;101981.03;5219806;28;20053;-86
2022/07/10 09:12:01;;;;;;;4.50;1.80;;;19.70;90.40;;;19.99;61.00;101978.31;5217516;28;20048;-86
2022/07/10 09:14:33;;;;;;;2.28;1.60;;;19.60;90.50;;;19.91;61.21;101972.03;5211329;28;20037;-83
2022/07/10 09:17:06;;;;;;;4.63;1.73;;;19.60;90.70;;;19.90;61.57;101967.63;5205201;28;20041;-85
2022/07/10 09:19:40;;;;;;;3.08;2.00;;;19.60;90.90;;;19.88;61.95;101970.22;5210418;28;20110;-85
2022/07/10 09:22:14;;;;;;;4.68;1.90;;;19.60;91.00;;;19.87;62.35;101978.13;5193636;28;20046;-85
2022/07/10 09:24:47;;;;;;;3.65;1.60;;;19.60;91.20;;;19.84;62.52;101975.47;5212705;28;20041;-82
2022/07/10 09:27:19;;;;;;;3.90;1.90;;;19.50;91.40;;;19.86;62.62;101971.97;5222336;28;20048;-84
2022/07/10 09:29:55;;;;;;;5.63;2.30;;;19.50;91.40;;;19.83;62.64;101971.03;5231475;28;20044;-83
2022/07/10 09:32:28;;;;;;;4.28;2.10;;;19.50;91.40;;;19.81;62.74;101965.69;5213727;28;20047;-82
2022/07/10 09:37:46;;;;;;;3.78;2.47;;;19.50;91.50;;;19.79;62.77;101968.31;5228750;28;20463;-85
2022/07/10 09:40:19;;;;;;;4.25;2.20;;;19.50;91.50;;;19.79;63.03;101968.31;5229440;28;20054;-84
2022/07/10 09:42:51;;;;;;;2.67;2.38;;;19.50;91.70;;;19.91;63.17;101964.09;5230593;28;20037;-85
2022/07/10 09:45:24;;;;;;;4.38;2.22;;;19.60;91.70;;;19.96;62.99;101973.00;5213095;28;20048;-83
2022/07/10 09:48:03;;;;;;;3.70;2.40;;;19.60;91.70;;;20.06;63.05;101965.19;5225227;28;20044;-85
2022/07/10 09:50:37;;;;;;;3.92;2.47;;;19.60;91.80;;;20.22;62.85;101961.03;5222508;28;20049;-85
2022/07/10 09:53:10;;;;;;;3.92;2.10;;;19.80;91.80;;;20.36;62.45;101960.31;5224257;28;20048;-84
2022/07/10 09:55:44;;;;;;;3.35;2.42;;;19.90;91.70;;;20.41;62.14;101962.16;5223815;28;20091;-83
2022/07/10 09:58:17;;;;;;;3.55;2.30;;;19.90;91.50;;;20.38;62.07;101966.50;5208155;28;20049;-85
2022/07/10 10:00:51;;;;;;;4.55;2.50;;;20.00;91.40;;;20.27;61.93;101975.19;5229468;28;20055;-83
2022/07/10 10:03:26;;;;;;;4.57;2.30;;;19.90;91.20;;;20.10;62.45;101974.09;5231162;28;20050;-84
2022/07/10 10:06:04;;;;;;;2.92;2.15;;;19.80;91.30;;;19.99;62.95;101970.38;5220704;28;20041;-86
2022/07/10 10:08:55;;;;;;;4.05;2.53;;;19.70;91.40;;;19.89;63.06;101972.03;5192972;28;20107;-87
2022/07/10 10:11:30;;;;;;;4.93;2.75;;;19.60;91.60;;;19.82;63.59;101963.94;5192973;28;20051;-87
2022/07/10 10:14:03;;;;;;;4.25;2.72;;;19.50;91.80;;;19.86;63.94;101963.13;5190624;28;20111;-85
2022/07/10 10:16:36;;;;;;;6.93;2.47;;;19.60;92.10;;;19.89;64.01;101965.84;5189779;28;20052;-86
2022/07/10 10:22:03;;;;;;;3.05;2.35;;;19.60;92.30;;;19.94;64.13;101964.13;5207217;28;20037;-86
2022/07/10 10:24:37;;;;;;;3.55;2.58;;;19.60;92.30;;;19.92;64.11;101965.88;5209188;28;20495;-87
2022/07/10 10:27:10;;;;;;;5.13;2.42;;;19.60;92.30;;;19.90;64.28;101967.63;5190759;28;20436;-88
2022/07/10 10:29:43;;;;;;;4.32;3.05;;;19.60;92.30;;;19.86;64.27;101965.78;5189826;28;20069;-84
2022/07/10 10:32:16;;;;;;;8.65;3.03;;;19.50;92.40;;;19.88;64.46;101964.03;5202991;28;20053;-85
2022/07/10 10:34:55;;;;;;;3.70;2.58;;;19.60;92.40;;;19.89;64.43;101960.53;5189751;28;20053;-87
2022/07/10 10:37:51;;;;;;;4.93;2.70;;;19.50;92.40;;;19.86;64.53;101960.47;5180869;28;20038;-85
2022/07/10 10:40:33;;;;;;;3.92;2.88;;;19.50;92.50;;;19.78;64.54;101961.25;5198753;28;20057;-84
2022/07/10 10:43:19;;;;;;;2.65;2.40;;;19.50;92.50;;;19.71;64.93;101961.16;5183630;28;20415;-85
2022/07/10 10:45:52;;;;;;;4.70;2.38;;;19.40;92.70;;;19.67;65.65;101959.31;5199360;28;20037;-85
2022/07/10 10:48:25;;;;;;;10.30;3.97;;;19.40;93.10;;;19.76;66.36;101960.34;5182396;28;20053;-83